sensor_id;sensor_type;location;lat;lon;timestamp;pressure;altitude;pressure_sealevel;temperature;humidity
73316;BME280;61545;53.726;-0.444;2023-04-29T00:02:57;1014.2;;;6.9;100.0
73316;BME280;61545;53.726;-0.444;2023-04-29T00:07:55;1014.1;;;6.9;100.0
73316;BME280;61545;53.726;-0.444;2023-04-29T00:12:57;1014.2;;;7.3;100.0
73316;BME280;61545;53.726;-0.444;2023-04-29T00:17:55;1014.2;;;7.1;100.0
73316;BME280;61545;53.726;-0.444;2023-04-29T00:22:55;1014.1;;;7.0;100.0
73316;BME280;61545;53.726;-0.444;2023-04-29T00:37:57;1014.2;;;7.0;100.0
73316;BME280;61545;53.726;-0.444;2023-04-29T00:42:55;1014.1;;;7.0;100.0
73316;BME280;61545;53.726;-0.444;2023-04-29T00:47:57;1014.1;;;7.1;100.0
73316;BME280;61545;53.726;-0.444;2023-04-29T00:52:55;1014.1;;;7.1;100.0
73316;BME280;61545;53.726;-0.444;2023-04-29T00:57:57;1014.2;;;7.1;100.0
73316;BME280;61545;53.726;-0.444;2023-04-29T01:02:57;1014.2;;;7.1;100.0
73316;BME280;61545;53.726;-0.444;2023-04-29T01:08:03;1014.2;;;7.1;100.0
73316;BME280;61545;53.726;-0.444;2023-04-29T01:13:01;1014.2;;;7.2;100.0
73316;BME280;61545;53.726;-0.444;2023-04-29T01:17:57;1014.1;;;7.2;100.0
73316;BME280;61545;53.726;-0.444;2023-04-29T01:22:57;1014.2;;;7.3;100.0
73316;BME280;61545;53.726;-0.444;2023-04-29T01:32:58;1014.3;;;7.5;100.0
73316;BME280;61545;53.726;-0.444;2023-04-29T01:38:00;1014.4;;;7.4;100.0
73316;BME280;61545;53.726;-0.444;2023-04-29T01:43:00;1014.5;;;7.5;100.0
73316;BME280;61545;53.726;-0.444;2023-04-29T01:47:58;1014.5;;;7.5;100.0
73316;BME280;61545;53.726;-0.444;2023-04-29T01:57:57;1014.5;;;7.6;100.0
73316;BME280;61545;53.726;-0.444;2023-04-29T02:02:57;1014.5;;;7.5;100.0
73316;BME280;61545;53.726;-0.444;2023-04-29T02:08:10;1014.4;;;7.7;100.0
73316;BME280;61545;53.726;-0.444;2023-04-29T02:18:06;1014.4;;;7.7;100.0
73316;BME280;61545;53.726;-0.444;2023-04-29T02:23:09;1014.5;;;7.7;100.0
73316;BME280;61545;53.726;-0.444;2023-04-29T02:28:08;1014.4;;;7.7;100.0
73316;BME280;61545;53.726;-0.444;2023-04-29T02:38:00;1014.5;;;7.7;100.0
73316;BME280;61545;53.726;-0.444;2023-04-29T02:42:55;1014.5;;;7.5;100.0
73316;BME280;61545;53.726;-0.444;2023-04-29T02:47:58;1014.5;;;7.5;100.0
73316;BME280;61545;53.726;-0.444;2023-04-29T02:53:09;1014.4;;;7.6;100.0
73316;BME280;61545;53.726;-0.444;2023-04-29T03:02:55;1014.4;;;7.7;100.0
73316;BME280;61545;53.726;-0.444;2023-04-29T03:07:55;1014.4;;;7.7;100.0
73316;BME280;61545;53.726;-0.444;2023-04-29T03:12:55;1014.5;;;7.7;100.0
73316;BME280;61545;53.726;-0.444;2023-04-29T03:17:58;1014.5;;;7.7;100.0
73316;BME280;61545;53.726;-0.444;2023-04-29T03:27:58;1014.5;;;7.7;100.0
73316;BME280;61545;53.726;-0.444;2023-04-29T03:33:00;1014.5;;;7.8;100.0
73316;BME280;61545;53.726;-0.444;2023-04-29T03:37:55;1014.5;;;7.8;100.0
73316;BME280;61545;53.726;-0.444;2023-04-29T03:42:55;1014.5;;;7.7;100.0
73316;BME280;61545;53.726;-0.444;2023-04-29T03:47:55;1014.6;;;unknown;100.0
73316;BME280;61545;53.726;-0.444;2023-04-29T03:52:57;1014.6;;;7.6;100.0
73316;BME280;61545;53.726;-0.444;2023-04-29T03:57:57;1014.6;;;7.5;100.0
73316;BME280;61545;53.726;-0.444;2023-04-29T04:02:55;1014.6;;;7.5;100.0
73316;BME280;61545;53.726;-0.444;2023-04-29T04:07:59;1014.7;;;7.5;100.0
73316;BME280;61545;53.726;-0.444;2023-04-29T04:12:55;1014.7;;;7.5;100.0
73316;BME280;61545;53.726;-0.444;2023-04-29T04:17:55;1014.7;;;7.4;100.0
73316;BME280;61545;53.726;-0.444;2023-04-29T04:22:58;1014.7;;;7.4;100.0
73316;BME280;61545;53.726;-0.444;2023-04-29T04:28:07;1014.8;;;unknown;100.0
73316;BME280;61545;53.726;-0.444;2023-04-29T04:32:58;1014.8;;;7.4;100.0
73316;BME280;61545;53.726;-0.444;2023-04-29T04:37:57;1014.8;;;7.5;100.0
73316;BME280;61545;53.726;-0.444;2023-04-29T04:42:57;1014.9;;;7.5;100.0
73316;BME280;61545;53.726;-0.444;2023-04-29T04:47:55;1014.9;;;unknown;100.0
73316;BME280;61545;53.726;-0.444;2023-04-29T04:52:55;1014.9;;;7.7;100.0
73316;BME280;61545;53.726;-0.444;2023-04-29T04:57:55;1014.9;;;7.7;100.0
73316;BME280;61545;53.726;-0.444;2023-04-29T05:02:55;1014.9;;;7.6;100.0
73316;BME280;61545;53.726;-0.444;2023-04-29T05:07:55;1015.0;;;7.6;100.0
73316;BME280;61545;53.726;-0.444;2023-04-29T05:12:55;1015.0;;;7.5;100.0
73316;BME280;61545;53.726;-0.444;2023-04-29T05:18:09;1015.1;;;7.5;100.0
73316;BME280;61545;53.726;-0.444;2023-04-29T05:22:58;1015.2;;;7.7;100.0
73316;BME280;61545;53.726;-0.444;2023-04-29T05:27:58;1015.3;;;7.6;100.0
73316;BME280;61545;53.726;-0.444;2023-04-29T05:32:58;1015.3;;;7.7;100.0
73316;BME280;61545;53.726;-0.444;2023-04-29T05:38:06;1015.2;;;7.8;100.0
73316;BME280;61545;53.726;-0.444;2023-04-29T05:42:58;1015.4;;;7.8;100.0
73316;BME280;61545;53.726;-0.444;2023-04-29T05:47:58;1015.4;;;7.9;100.0
73316;BME280;61545;53.726;-0.444;2023-04-29T05:52:58;1015.4;;;8.0;100.0
73316;BME280;61545;53.726;-0.444;2023-04-29T05:57:55;1015.5;;;7.8;100.0
73316;BME280;61545;53.726;-0.444;2023-04-29T06:03:08;1015.4;;;7.7;100.0
73316;BME280;61545;53.726;-0.444;2023-04-29T06:07:58;1015.5;;;7.8;100.0
73316;BME280;61545;53.726;-0.444;2023-04-29T06:13:06;1015.5;;;8.0;100.0
73316;BME280;61545;53.726;-0.444;2023-04-29T06:17:58;1015.4;;;8.0;100.0
73316;BME280;61545;53.726;-0.444;2023-04-29T06:23:19;1015.5;;;8.1;100.0
73316;BME280;61545;53.726;-0.444;2023-04-29T06:28:14;1015.6;;;8.2;100.0
73316;BME280;61545;53.726;-0.444;2023-04-29T06:33:21;1015.6;;;8.2;100.0
73316;BME280;61545;53.726;-0.444;2023-04-29T06:38:09;1015.6;;;8.3;100.0
73316;BME280;61545;53.726;-0.444;2023-04-29T06:42:58;1015.7;;;8.5;100.0
73316;BME280;61545;53.726;-0.444;2023-04-29T06:47:58;1015.7;;;8.9;100.0
73316;BME280;61545;53.726;-0.444;2023-04-29T06:53:15;1015.8;;;9.3;100.0
73316;BME280;61545;53.726;-0.444;2023-04-29T06:58:07;1015.8;;;10.1;100.0
73316;BME280;61545;53.726;-0.444;2023-04-29T07:03:05;1015.8;;;11.1;100.0
73316;BME280;61545;53.726;-0.444;2023-04-29T07:08:06;1015.9;;;12.6;100.0
73316;BME280;61545;53.726;-0.444;2023-04-29T07:13:07;1015.9;;;12.5;100.0
73316;BME280;61545;53.726;-0.444;2023-04-29T07:17:58;1015.9;;;12.4;100.0
73316;BME280;61545;53.726;-0.444;2023-04-29T07:22:58;1016.0;;;12.7;100.0
73316;BME280;61545;53.726;-0.444;2023-04-29T07:27:58;1016.0;;;13.0;100.0
73316;BME280;61545;53.726;-0.444;2023-04-29T07:33:11;1016.0;;;13.5;100.0
73316;BME280;61545;53.726;-0.444;2023-04-29T07:38:10;1016.0;;;13.9;100.0
73316;BME280;61545;53.726;-0.444;2023-04-29T07:48:00;1016.1;;;14.5;100.0
73316;BME280;61545;53.726;-0.444;2023-04-29T08:03:09;1016.2;;;15.2;100.0
73316;BME280;61545;53.726;-0.444;2023-04-29T08:07:55;1016.2;;;14.7;100.0
73316;BME280;61545;53.726;-0.444;2023-04-29T08:18:00;1016.2;;;15.7;100.0
73316;BME280;61545;53.726;-0.444;2023-04-29T08:22:59;1016.2;;;14.9;100.0
73316;BME280;61545;53.726;-0.444;2023-04-29T08:33:12;1016.4;;;15.1;100.0
73316;BME280;61545;53.726;-0.444;2023-04-29T08:37:58;1016.4;;;15.5;100.0
73316;BME280;61545;53.726;-0.444;2023-04-29T08:42:58;1016.4;;;14.7;100.0
73316;BME280;61545;53.726;-0.444;2023-04-29T08:53:12;1016.4;;;15.5;100.0
73316;BME280;61545;53.726;-0.444;2023-04-29T08:57:58;1016.3;;;15.8;100.0
73316;BME280;61545;53.726;-0.444;2023-04-29T09:03:03;1016.4;;;16.4;100.0
73316;BME280;61545;53.726;-0.444;2023-04-29T09:07:58;1016.4;;;15.9;100.0
73316;BME280;61545;53.726;-0.444;2023-04-29T09:12:58;1016.5;;;17.1;100.0
73316;BME280;61545;53.726;-0.444;2023-04-29T09:17:55;1016.5;;;16.5;100.0
73316;BME280;61545;53.726;-0.444;2023-04-29T09:22:59;1016.6;;;17.0;100.0
73316;BME280;61545;53.726;-0.444;2023-04-29T09:28:13;1016.6;;;16.8;100.0
73316;BME280;61545;53.726;-0.444;2023-04-29T09:33:06;1016.7;;;17.4;100.0
73316;BME280;61545;53.726;-0.444;2023-04-29T09:38:07;1016.7;;;unknown;100.0
73316;BME280;61545;53.726;-0.444;2023-04-29T09:42:55;1016.7;;;unknown;100.0
73316;BME280;61545;53.726;-0.444;2023-04-29T09:53:07;1016.7;;;17.1;100.0
73316;BME280;61545;53.726;-0.444;2023-04-29T09:57:58;1016.7;;;16.6;100.0
73316;BME280;61545;53.726;-0.444;2023-04-29T10:03:16;1016.6;;;17.2;100.0
73316;BME280;61545;53.726;-0.444;2023-04-29T10:07:58;1016.6;;;17.0;100.0
73316;BME280;61545;53.726;-0.444;2023-04-29T10:12:59;1016.7;;;unknown;100.0
73316;BME280;61545;53.726;-0.444;2023-04-29T10:17:59;1016.7;;;16.4;100.0
73316;BME280;61545;53.726;-0.444;2023-04-29T10:22:55;1016.7;;;18.2;100.0
73316;BME280;61545;53.726;-0.444;2023-04-29T10:28:00;1016.4;;;17.8;100.0
73316;BME280;61545;53.726;-0.444;2023-04-29T10:32:58;1016.4;;;17.2;100.0
73316;BME280;61545;53.726;-0.444;2023-04-29T10:43:09;1016.3;;;18.0;100.0
73316;BME280;61545;53.726;-0.444;2023-04-29T10:48:28;1016.5;;;16.9;100.0
73316;BME280;61545;53.726;-0.444;2023-04-29T10:53:09;1016.5;;;16.6;100.0
73316;BME280;61545;53.726;-0.444;2023-04-29T10:57:58;1016.5;;;17.7;100.0
73316;BME280;61545;53.726;-0.444;2023-04-29T11:02:55;1016.5;;;18.1;100.0
73316;BME280;61545;53.726;-0.444;2023-04-29T11:08:09;1016.5;;;18.0;100.0
73316;BME280;61545;53.726;-0.444;2023-04-29T11:17:57;1016.5;;;17.8;100.0
73316;BME280;61545;53.726;-0.444;2023-04-29T11:22:57;1016.5;;;17.9;100.0
73316;BME280;61545;53.726;-0.444;2023-04-29T11:28:02;1016.6;;;16.8;100.0
73316;BME280;61545;53.726;-0.444;2023-04-29T11:33:10;1016.6;;;17.4;100.0
73316;BME280;61545;53.726;-0.444;2023-04-29T11:38:09;1016.7;;;17.5;100.0
73316;BME280;61545;53.726;-0.444;2023-04-29T11:42:55;1016.7;;;unknown;100.0
73316;BME280;61545;53.726;-0.444;2023-04-29T11:47:58;1016.6;;;17.4;100.0
73316;BME280;61545;53.726;-0.444;2023-04-29T11:52:59;1016.6;;;17.6;100.0
73316;BME280;61545;53.726;-0.444;2023-04-29T11:58:08;1016.6;;;17.5;100.0
73316;BME280;61545;53.726;-0.444;2023-04-29T12:03:08;1016.6;;;17.5;100.0
73316;BME280;61545;53.726;-0.444;2023-04-29T12:08:07;1016.6;;;17.2;100.0
73316;BME280;61545;53.726;-0.444;2023-04-29T12:12:58;1016.5;;;18.0;100.0
73316;BME280;61545;53.726;-0.444;2023-04-29T12:17:59;1016.4;;;17.9;100.0
73316;BME280;61545;53.726;-0.444;2023-04-29T12:23:09;1016.4;;;19.2;100.0
73316;BME280;61545;53.726;-0.444;2023-04-29T12:28:10;1016.5;;;17.6;100.0
73316;BME280;61545;53.726;-0.444;2023-04-29T12:32:55;1016.4;;;17.1;100.0
73316;BME280;61545;53.726;-0.444;2023-04-29T12:37:56;1016.4;;;17.9;100.0
73316;BME280;61545;53.726;-0.444;2023-04-29T12:43:05;1016.5;;;unknown;100.0
73316;BME280;61545;53.726;-0.444;2023-04-29T12:52:57;1016.5;;;unknown;100.0
73316;BME280;61545;53.726;-0.444;2023-04-29T12:58:00;1016.5;;;17.8;100.0
73316;BME280;61545;53.726;-0.444;2023-04-29T13:02:56;1016.5;;;17.5;100.0
73316;BME280;61545;53.726;-0.444;2023-04-29T13:08:10;1016.5;;;18.1;100.0
73316;BME280;61545;53.726;-0.444;2023-04-29T13:13:06;1016.5;;;17.5;100.0
73316;BME280;61545;53.726;-0.444;2023-04-29T13:17:55;1016.6;;;unknown;100.0
73316;BME280;61545;53.726;-0.444;2023-04-29T13:22:55;1016.6;;;17.5;100.0
73316;BME280;61545;53.726;-0.444;2023-04-29T13:27:55;1016.6;;;17.2;100.0
73316;BME280;61545;53.726;-0.444;2023-04-29T13:32:55;1016.6;;;17.3;100.0
73316;BME280;61545;53.726;-0.444;2023-04-29T13:37:57;1016.7;;;16.7;100.0
73316;BME280;61545;53.726;-0.444;2023-04-29T13:42:55;1016.7;;;unknown;100.0
73316;BME280;61545;53.726;-0.444;2023-04-29T13:48:06;1016.8;;;unknown;100.0
73316;BME280;61545;53.726;-0.444;2023-04-29T13:52:58;1016.7;;;unknown;100.0
73316;BME280;61545;53.726;-0.444;2023-04-29T14:03:09;1016.6;;;16.4;100.0
73316;BME280;61545;53.726;-0.444;2023-04-29T14:08:11;1016.6;;;16.9;100.0
73316;BME280;61545;53.726;-0.444;2023-04-29T14:12:57;1016.6;;;17.4;100.0
73316;BME280;61545;53.726;-0.444;2023-04-29T14:27:58;1016.7;;;16.7;100.0
73316;BME280;61545;53.726;-0.444;2023-04-29T14:32:58;1016.7;;;unknown;100.0
73316;BME280;61545;53.726;-0.444;2023-04-29T14:37:56;1016.8;;;16.1;100.0
73316;BME280;61545;53.726;-0.444;2023-04-29T14:42:58;1016.8;;;16.0;100.0
73316;BME280;61545;53.726;-0.444;2023-04-29T14:47:58;1016.8;;;15.7;100.0
73316;BME280;61545;53.726;-0.444;2023-04-29T14:52:58;1016.8;;;15.5;100.0
73316;BME280;61545;53.726;-0.444;2023-04-29T14:58:11;1016.8;;;15.5;100.0
73316;BME280;61545;53.726;-0.444;2023-04-29T15:03:06;1016.8;;;16.6;100.0
73316;BME280;61545;53.726;-0.444;2023-04-29T15:08:08;1016.8;;;16.6;100.0
73316;BME280;61545;53.726;-0.444;2023-04-29T15:13:10;1016.9;;;16.4;100.0
73316;BME280;61545;53.726;-0.444;2023-04-29T15:17:58;1016.8;;;16.1;100.0
73316;BME280;61545;53.726;-0.444;2023-04-29T15:23:16;1016.8;;;16.0;100.0
73316;BME280;61545;53.726;-0.444;2023-04-29T15:27:58;1016.9;;;16.1;100.0
73316;BME280;61545;53.726;-0.444;2023-04-29T15:32:58;1016.9;;;16.3;100.0
73316;BME280;61545;53.726;-0.444;2023-04-29T15:38:15;1016.9;;;15.5;100.0
73316;BME280;61545;53.726;-0.444;2023-04-29T15:42:58;1016.9;;;16.2;100.0
73316;BME280;61545;53.726;-0.444;2023-04-29T15:47:58;1016.9;;;unknown;100.0
73316;BME280;61545;53.726;-0.444;2023-04-29T15:57:58;1016.9;;;16.0;100.0
73316;BME280;61545;53.726;-0.444;2023-04-29T16:02:58;1016.9;;;15.2;100.0
73316;BME280;61545;53.726;-0.444;2023-04-29T16:12:58;1016.9;;;15.4;100.0
73316;BME280;61545;53.726;-0.444;2023-04-29T16:17:58;1016.9;;;15.2;100.0
73316;BME280;61545;53.726;-0.444;2023-04-29T16:23:06;1016.9;;;14.9;100.0
73316;BME280;61545;53.726;-0.444;2023-04-29T16:27:58;1016.9;;;15.1;100.0
73316;BME280;61545;53.726;-0.444;2023-04-29T16:32:58;1016.9;;;15.0;100.0
73316;BME280;61545;53.726;-0.444;2023-04-29T16:38:08;1016.9;;;14.9;100.0
73316;BME280;61545;53.726;-0.444;2023-04-29T16:42:58;1016.9;;;unknown;100.0
73316;BME280;61545;53.726;-0.444;2023-04-29T16:48:09;1016.9;;;14.5;100.0
73316;BME280;61545;53.726;-0.444;2023-04-29T16:53:07;1016.9;;;14.8;100.0
73316;BME280;61545;53.726;-0.444;2023-04-29T16:57:58;1016.8;;;14.8;100.0
73316;BME280;61545;53.726;-0.444;2023-04-29T17:02:58;1016.8;;;14.4;100.0
73316;BME280;61545;53.726;-0.444;2023-04-29T17:08:09;1016.8;;;14.2;100.0
73316;BME280;61545;53.726;-0.444;2023-04-29T17:13:16;1016.8;;;14.2;100.0
73316;BME280;61545;53.726;-0.444;2023-04-29T17:17:58;1016.7;;;14.0;100.0
73316;BME280;61545;53.726;-0.444;2023-04-29T17:22:55;1016.8;;;13.9;100.0
73316;BME280;61545;53.726;-0.444;2023-04-29T17:32:55;1016.9;;;13.5;100.0
73316;BME280;61545;53.726;-0.444;2023-04-29T17:37:55;1017.0;;;13.3;100.0
73316;BME280;61545;53.726;-0.444;2023-04-29T17:42:58;1017.1;;;13.2;100.0
73316;BME280;61545;53.726;-0.444;2023-04-29T17:57:58;1017.2;;;12.8;100.0
73316;BME280;61545;53.726;-0.444;2023-04-29T18:02:58;1017.2;;;12.8;100.0
73316;BME280;61545;53.726;-0.444;2023-04-29T18:08:07;1017.3;;;12.7;100.0
73316;BME280;61545;53.726;-0.444;2023-04-29T18:18:09;1017.3;;;12.7;100.0
73316;BME280;61545;53.726;-0.444;2023-04-29T18:22:58;1017.4;;;12.6;100.0
73316;BME280;61545;53.726;-0.444;2023-04-29T18:28:07;1017.3;;;12.5;100.0
73316;BME280;61545;53.726;-0.444;2023-04-29T18:32:58;1017.3;;;12.2;100.0
73316;BME280;61545;53.726;-0.444;2023-04-29T18:37:57;1017.3;;;12.3;100.0
73316;BME280;61545;53.726;-0.444;2023-04-29T18:47:58;1017.4;;;12.1;100.0
73316;BME280;61545;53.726;-0.444;2023-04-29T18:52:57;1017.5;;;unknown;100.0
73316;BME280;61545;53.726;-0.444;2023-04-29T18:58:00;1017.5;;;11.8;100.0
73316;BME280;61545;53.726;-0.444;2023-04-29T19:02:57;1017.5;;;11.7;100.0
73316;BME280;61545;53.726;-0.444;2023-04-29T19:07:55;1017.5;;;11.8;100.0
73316;BME280;61545;53.726;-0.444;2023-04-29T19:12:57;1017.6;;;11.5;100.0
73316;BME280;61545;53.726;-0.444;2023-04-29T19:17:55;1017.6;;;11.5;100.0
73316;BME280;61545;53.726;-0.444;2023-04-29T19:27:58;1017.6;;;11.3;100.0
73316;BME280;61545;53.726;-0.444;2023-04-29T19:32:55;1017.7;;;11.2;100.0
73316;BME280;61545;53.726;-0.444;2023-04-29T19:37:58;1017.6;;;11.3;100.0
73316;BME280;61545;53.726;-0.444;2023-04-29T19:42:58;1017.7;;;11.2;100.0
73316;BME280;61545;53.726;-0.444;2023-04-29T19:47:57;1017.7;;;11.2;100.0
73316;BME280;61545;53.726;-0.444;2023-04-29T19:52:55;1017.8;;;11.2;100.0
73316;BME280;61545;53.726;-0.444;2023-04-29T20:02:58;1017.9;;;10.9;100.0
73316;BME280;61545;53.726;-0.444;2023-04-29T20:07:58;1017.9;;;10.9;100.0
73316;BME280;61545;53.726;-0.444;2023-04-29T20:18:07;1017.9;;;10.9;100.0
73316;BME280;61545;53.726;-0.444;2023-04-29T20:23:06;1018.0;;;10.7;100.0
73316;BME280;61545;53.726;-0.444;2023-04-29T20:27:59;1018.0;;;10.7;100.0
73316;BME280;61545;53.726;-0.444;2023-04-29T20:32:58;1018.0;;;10.7;100.0
73316;BME280;61545;53.726;-0.444;2023-04-29T20:37:55;1018.1;;;10.7;100.0
73316;BME280;61545;53.726;-0.444;2023-04-29T20:42:57;1018.1;;;10.7;100.0
73316;BME280;61545;53.726;-0.444;2023-04-29T20:47:58;1018.1;;;10.7;100.0
73316;BME280;61545;53.726;-0.444;2023-04-29T20:52:59;1018.0;;;10.5;100.0
73316;BME280;61545;53.726;-0.444;2023-04-29T21:03:07;1018.1;;;10.5;100.0
73316;BME280;61545;53.726;-0.444;2023-04-29T21:07:58;1018.1;;;10.4;100.0
73316;BME280;61545;53.726;-0.444;2023-04-29T21:12:55;1018.1;;;10.5;100.0
73316;BME280;61545;53.726;-0.444;2023-04-29T21:17:58;1018.2;;;10.5;100.0
73316;BME280;61545;53.726;-0.444;2023-04-29T21:22:57;1018.2;;;10.4;100.0
73316;BME280;61545;53.726;-0.444;2023-04-29T21:32:55;1018.1;;;10.4;100.0
73316;BME280;61545;53.726;-0.444;2023-04-29T21:38:00;1018.2;;;10.5;100.0
73316;BME280;61545;53.726;-0.444;2023-04-29T21:43:06;1018.3;;;10.3;100.0
73316;BME280;61545;53.726;-0.444;2023-04-29T21:48:12;1018.2;;;10.3;100.0
73316;BME280;61545;53.726;-0.444;2023-04-29T21:57:58;1018.2;;;10.4;100.0
73316;BME280;61545;53.726;-0.444;2023-04-29T22:03:07;1018.1;;;10.4;100.0
73316;BME280;61545;53.726;-0.444;2023-04-29T22:08:17;1018.1;;;10.4;100.0
73316;BME280;61545;53.726;-0.444;2023-04-29T22:12:58;1018.0;;;10.2;100.0
73316;BME280;61545;53.726;-0.444;2023-04-29T22:18:12;1018.0;;;10.1;100.0
73316;BME280;61545;53.726;-0.444;2023-04-29T22:23:16;1018.0;;;10.2;100.0
73316;BME280;61545;53.726;-0.444;2023-04-29T22:33:12;1018.0;;;10.0;100.0
73316;BME280;61545;53.726;-0.444;2023-04-29T22:38:08;1017.9;;;9.8;100.0
73316;BME280;61545;53.726;-0.444;2023-04-29T22:42:58;1017.9;;;9.9;100.0
73316;BME280;61545;53.726;-0.444;2023-04-29T22:48:06;1017.9;;;9.9;100.0
73316;BME280;61545;53.726;-0.444;2023-04-29T22:53:07;1017.8;;;9.8;100.0
73316;BME280;61545;53.726;-0.444;2023-04-29T23:03:07;1017.7;;;9.7;100.0
73316;BME280;61545;53.726;-0.444;2023-04-29T23:08:07;1017.7;;;9.7;100.0
73316;BME280;61545;53.726;-0.444;2023-04-29T23:12:58;1017.7;;;9.9;100.0
73316;BME280;61545;53.726;-0.444;2023-04-29T23:17:58;1017.6;;;9.9;100.0
73316;BME280;61545;53.726;-0.444;2023-04-29T23:27:55;1017.6;;;9.8;100.0
73316;BME280;61545;53.726;-0.444;2023-04-29T23:32:55;1017.6;;;9.9;100.0
73316;BME280;61545;53.726;-0.444;2023-04-29T23:42:58;1017.6;;;9.7;100.0
73316;BME280;61545;53.726;-0.444;2023-04-29T23:47:58;1017.6;;;9.7;100.0
73316;BME280;61545;53.726;-0.444;2023-04-29T23:57:58;1017.6;;;9.6;100.0
